Mccluer Island, Australia
Current Conditions -  °F | °C
As of 11:30 AM on Monday 24 Nov 2014 (Local Time) from YPDN Reporting Station
Scattered Clouds Scattered Clouds  
Wind Chill: 91°   Ceiling: Unl
Heat Index: 98°   Visibility: 6mi
Dew Point: 72°   Wind: 8mph
Humidity: 52%   Direction: 310°NW
Pressure: 29.83"   Gusts: NA
Location:  11.07°S, 133°E
Report Text: YPDN 240230Z 31007KT 9999 FEW040 SCT350 33/22 Q1010
Loading
Personal Weather Stations






























Interactive Weather Map New forecast layout! Learn more

10-Day Weather Forecast

Advertisements
Track Severe Weather on mobile